Time;durP1;ratioP1;P1;durP2;ratioP2;P2;SDS_P1;SDS_P2;PMS_P1;PMS_P2;Temp;Humidity;BMP_temperature;BMP_pressure;BME280_temperature;BME280_humidity;BME280_pressure;Samples;Min_cycle;Max_cycle;Signal;HPM_P1;HPM_P2
2021/01/18 00:02:23;;;;;;;64.63;35.07;;;1.30;99.90;;;;;;5029866;28;20484;-49
2021/01/18 00:04:50;;;;;;;67.13;31.93;;;1.30;99.90;;;;;;5013990;28;20552;-49
2021/01/18 00:07:18;;;;;;;78.27;35.93;;;1.60;99.90;;;;;;5011972;28;20567;-49
2021/01/18 00:09:45;;;;;;;80.43;38.73;;;1.70;99.90;;;;;;5007619;28;20472;-49
2021/01/18 00:12:12;;;;;;;75.73;37.73;;;1.60;99.90;;;;;;5018271;28;20494;-49
2021/01/18 00:14:40;;;;;;;73.57;36.97;;;1.60;99.90;;;;;;5010053;28;20708;-49
2021/01/18 00:17:08;;;;;;;74.40;37.57;;;1.60;99.90;;;;;;5010469;28;20476;-49
2021/01/18 00:19:35;;;;;;;77.23;37.90;;;1.70;99.90;;;;;;4996875;28;20961;-49
2021/01/18 00:22:03;;;;;;;71.77;37.00;;;1.70;99.90;;;;;;4990015;28;20488;-49
2021/01/18 00:24:30;;;;;;;66.23;33.97;;;1.50;99.90;;;;;;4990283;28;20568;-49
2021/01/18 00:26:57;;;;;;;73.50;37.40;;;1.40;99.90;;;;;;4997682;28;20500;-49
2021/01/18 00:29:24;;;;;;;68.13;37.03;;;1.50;99.90;;;;;;5010080;28;20476;-49
2021/01/18 00:31:52;;;;;;;66.87;34.70;;;1.60;99.90;;;;;;5009623;28;21228;-49
2021/01/18 00:34:20;;;;;;;66.20;34.53;;;1.60;99.90;;;;;;4995097;28;20560;-50
2021/01/18 00:36:49;;;;;;;62.87;33.47;;;1.50;99.90;;;;;;4990243;28;20973;-49
2021/01/18 00:39:16;;;;;;;64.30;34.70;;;1.50;99.90;;;;;;5007461;28;20473;-49
2021/01/18 00:41:43;;;;;;;62.10;31.73;;;1.50;99.90;;;;;;5009049;28;20526;-49
2021/01/18 00:44:11;;;;;;;69.17;34.93;;;1.50;99.90;;;;;;5009546;28;20987;-49
2021/01/18 00:46:38;;;;;;;64.03;30.97;;;1.60;99.90;;;;;;5009951;28;20480;-49
2021/01/18 00:49:07;;;;;;;69.87;32.00;;;1.60;99.90;;;;;;5008348;28;20541;-49
2021/01/18 00:51:37;;;;;;;89.03;39.13;;;1.70;99.90;;;;;;5007783;28;20488;-49
2021/01/18 00:54:05;;;;;;;76.50;32.83;;;1.80;99.90;;;;;;5008786;28;20559;-49
2021/01/18 00:56:37;;;;;;;97.23;41.13;;;1.80;99.90;;;;;;5008045;28;20540;-49
2021/01/18 00:59:07;;;;;;;88.33;39.47;;;1.80;99.90;;;;;;5008196;28;20464;-49
2021/01/18 01:01:43;;;;;;;82.27;36.43;;;1.80;99.90;;;;;;5008961;28;20837;-50
2021/01/18 01:04:13;;;;;;;91.47;41.17;;;1.70;99.90;;;;;;5009235;28;20480;-49
2021/01/18 01:06:40;;;;;;;84.97;38.97;;;1.60;99.90;;;;;;5015600;28;21074;-49
2021/01/18 01:09:08;;;;;;;81.47;38.33;;;1.50;99.90;;;;;;5019019;28;20556;-49
2021/01/18 01:11:42;;;;;;;76.77;36.27;;;1.60;99.90;;;;;;5028655;28;20525;-49
2021/01/18 01:14:10;;;;;;;75.93;32.43;;;1.50;99.90;;;;;;5010809;28;20468;-49
2021/01/18 01:16:38;;;;;;;80.93;34.63;;;1.70;99.90;;;;;;4989493;28;20844;-49
2021/01/18 01:19:05;;;;;;;87.53;38.70;;;1.90;99.90;;;;;;4989032;28;20816;-49
2021/01/18 01:21:33;;;;;;;93.87;38.20;;;1.70;99.90;;;;;;4989306;28;20563;-49
2021/01/18 01:24:01;;;;;;;100.67;42.07;;;1.80;99.90;;;;;;4989289;28;20646;-49
2021/01/18 01:26:28;;;;;;;88.80;36.13;;;1.80;99.90;;;;;;4989121;28;20508;-49
2021/01/18 01:28:55;;;;;;;105.53;41.20;;;1.80;99.90;;;;;;4989566;28;20505;-49
2021/01/18 01:31:22;;;;;;;94.37;38.87;;;1.70;99.90;;;;;;4989103;28;20569;-49
2021/01/18 01:33:57;;;;;;;93.73;41.03;;;1.80;99.90;;;;;;4999345;28;20488;-49
2021/01/18 01:36:24;;;;;;;96.13;39.67;;;1.70;99.90;;;;;;5008563;28;20548;-49
2021/01/18 01:38:52;;;;;;;84.23;35.57;;;1.60;99.90;;;;;;5011440;28;20481;-49
2021/01/18 01:41:20;;;;;;;91.10;36.67;;;1.60;99.90;;;;;;5008057;28;20518;-49
2021/01/18 01:43:47;;;;;;;96.27;40.87;;;1.90;99.90;;;;;;5008342;28;21073;-49
2021/01/18 01:46:15;;;;;;;97.27;39.23;;;1.80;99.90;;;;;;5008389;28;20487;-49
2021/01/18 01:48:43;;;;;;;87.20;38.93;;;1.70;99.90;;;;;;5008686;28;20509;-49
2021/01/18 01:51:10;;;;;;;78.17;35.90;;;1.70;99.90;;;;;;5009248;28;20579;-49
2021/01/18 01:53:38;;;;;;;75.97;30.83;;;1.60;99.90;;;;;;5008335;28;20989;-49
2021/01/18 01:56:06;;;;;;;66.07;31.73;;;1.80;99.90;;;;;;5008504;28;21051;-49
2021/01/18 01:58:34;;;;;;;74.30;35.87;;;1.90;99.90;;;;;;5008014;28;20913;-48
2021/01/18 02:01:04;;;;;;;61.27;28.87;;;1.90;99.90;;;;;;5006865;28;20578;-49
2021/01/18 02:03:40;;;;;;;60.37;29.23;;;2.00;99.90;;;;;;5009567;28;20497;-49
2021/01/18 02:06:09;;;;;;;65.93;32.27;;;1.90;99.90;;;;;;5011948;28;20497;-49
2021/01/18 02:08:37;;;;;;;64.27;31.20;;;2.00;99.90;;;;;;5027843;28;20475;-49
2021/01/18 02:11:06;;;;;;;66.70;30.70;;;1.90;99.90;;;;;;5012762;28;20482;-49
2021/01/18 02:14:24;;;;;;;67.37;31.67;;;2.00;99.90;;;;;;5007808;28;20547;-49
2021/01/18 02:16:59;;;;;;;61.30;28.20;;;1.90;99.90;;;;;;4966298;28;21550;-49
2021/01/18 02:20:23;;;;;;;63.83;29.93;;;2.00;99.90;;;;;;5001086;28;20476;-49
2021/01/18 02:23:24;;;;;;;62.17;29.30;;;1.90;99.90;;;;;;5007096;28;20514;-49
2021/01/18 02:25:53;;;;;;;58.43;27.90;;;1.80;99.90;;;;;;5006842;28;20532;-49
2021/01/18 02:28:34;;;;;;;61.50;29.97;;;1.70;99.90;;;;;;5008149;28;21132;-49
2021/01/18 02:31:49;;;;;;;57.50;27.90;;;1.70;99.90;;;;;;5008355;28;20535;-49
2021/01/18 02:35:09;;;;;;;53.87;27.87;;;1.90;99.90;;;;;;4992238;28;20527;-49
2021/01/18 02:38:14;;;;;;;55.33;27.10;;;2.00;99.90;;;;;;4988040;28;20577;-49
2021/01/18 02:40:52;;;;;;;53.37;25.67;;;1.80;99.90;;;;;;5024182;28;20877;-49
2021/01/18 02:43:26;;;;;;;50.90;24.53;;;1.70;99.90;;;;;;5027300;28;20508;-49
2021/01/18 02:45:56;;;;;;;50.60;26.13;;;1.90;99.90;;;;;;5027934;28;20499;-49
2021/01/18 02:48:25;;;;;;;43.73;21.70;;;1.90;99.90;;;;;;5027459;28;20484;-49
2021/01/18 02:50:56;;;;;;;48.90;25.20;;;1.90;99.90;;;;;;5027500;28;20492;-49
2021/01/18 02:53:24;;;;;;;44.93;21.80;;;2.00;99.90;;;;;;5026999;28;20868;-49
2021/01/18 02:55:51;;;;;;;56.57;24.10;;;2.20;99.90;;;;;;5027678;28;20558;-49
2021/01/18 02:58:22;;;;;;;59.53;25.50;;;2.30;99.90;;;;;;5020857;28;20516;-49
2021/01/18 03:00:58;;;;;;;54.03;23.63;;;2.20;99.90;;;;;;5007010;28;20976;-49
2021/01/18 03:03:36;;;;;;;53.73;26.30;;;2.10;99.90;;;;;;5011506;28;20495;-49
2021/01/18 03:06:17;;;;;;;50.60;23.13;;;1.90;99.90;;;;;;5023139;28;20496;-49
2021/01/18 03:08:51;;;;;;;49.17;24.60;;;2.00;99.90;;;;;;5011604;28;20580;-49
2021/01/18 03:11:32;;;;;;;42.27;21.13;;;1.90;99.90;;;;;;5007732;28;20484;-49
2021/01/18 03:14:06;;;;;;;51.67;24.40;;;2.00;99.90;;;;;;5007662;28;20493;-49
2021/01/18 03:16:39;;;;;;;45.97;23.17;;;2.00;99.90;;;;;;5007306;28;20480;-49
2021/01/18 03:19:09;;;;;;;47.70;22.33;;;1.90;99.90;;;;;;5010158;28;20477;-49
2021/01/18 03:21:36;;;;;;;48.40;22.40;;;1.80;99.90;;;;;;5007477;28;20535;-50
2021/01/18 03:24:07;;;;;;;48.50;21.57;;;1.80;99.90;;;;;;5006805;28;21034;-49
2021/01/18 03:26:34;;;;;;;55.57;23.07;;;2.20;99.90;;;;;;5007640;28;20512;-49
2021/01/18 03:29:02;;;;;;;57.27;25.70;;;2.30;99.90;;;;;;5012397;28;20471;-49
2021/01/18 03:31:29;;;;;;;55.07;24.50;;;2.40;99.90;;;;;;5026963;28;20583;-49
2021/01/18 03:33:57;;;;;;;49.13;22.13;;;2.40;99.90;;;;;;5002395;28;20491;-49
2021/01/18 03:36:24;;;;;;;50.60;23.67;;;2.20;99.90;;;;;;4988806;28;20562;-49
2021/01/18 03:38:52;;;;;;;46.07;20.53;;;2.40;99.90;;;;;;4991236;28;20485;-49
2021/01/18 03:41:20;;;;;;;53.10;23.63;;;2.50;99.90;;;;;;4991380;28;20497;-49
2021/01/18 03:43:51;;;;;;;44.13;21.10;;;2.30;99.90;;;;;;4991037;28;20539;-49
2021/01/18 03:46:18;;;;;;;47.40;21.83;;;2.00;99.90;;;;;;4991472;28;20560;-49
2021/01/18 03:48:46;;;;;;;42.37;20.03;;;1.90;99.90;;;;;;4991410;28;20483;-49
2021/01/18 03:51:14;;;;;;;42.17;20.50;;;1.90;99.90;;;;;;4990959;28;20540;-49
2021/01/18 03:53:41;;;;;;;35.50;17.17;;;1.90;99.90;;;;;;4990545;28;20478;-50
2021/01/18 03:56:08;;;;;;;38.50;18.90;;;2.10;99.90;;;;;;5000735;28;20564;-49
2021/01/18 03:58:37;;;;;;;38.07;16.77;;;1.90;99.90;;;;;;5010993;28;20497;-49
2021/01/18 04:01:04;;;;;;;44.53;20.07;;;2.20;99.90;;;;;;5014767;28;20500;-49
2021/01/18 04:03:31;;;;;;;40.53;17.93;;;2.20;99.90;;;;;;5022301;28;20484;-49
2021/01/18 04:05:59;;;;;;;42.03;18.60;;;2.20;99.90;;;;;;5017978;28;20566;-49
2021/01/18 04:08:27;;;;;;;47.23;18.20;;;2.30;99.90;;;;;;5010507;28;20568;-49
2021/01/18 04:10:54;;;;;;;41.63;18.17;;;2.30;99.90;;;;;;5010323;28;20853;-49
2021/01/18 04:13:21;;;;;;;49.23;18.70;;;2.30;99.90;;;;;;5010243;28;21168;-49
2021/01/18 04:15:50;;;;;;;51.57;21.47;;;2.50;99.90;;;;;;5010288;28;20882;-49
2021/01/18 04:18:17;;;;;;;49.43;18.97;;;2.50;99.90;;;;;;5009879;28;20505;-49
2021/01/18 04:20:45;;;;;;;43.37;19.17;;;2.20;99.90;;;;;;5010272;28;20535;-49
2021/01/18 04:23:12;;;;;;;44.10;17.73;;;2.30;99.90;;;;;;5009772;28;20563;-49
2021/01/18 04:25:39;;;;;;;41.90;18.17;;;2.40;99.90;;;;;;5010309;28;20478;-49
2021/01/18 04:28:07;;;;;;;37.80;16.97;;;2.20;99.90;;;;;;5010374;28;20544;-49
2021/01/18 04:30:37;;;;;;;34.83;16.87;;;2.00;99.90;;;;;;5009818;28;20531;-49
2021/01/18 04:33:08;;;;;;;38.30;16.13;;;1.90;99.90;;;;;;5002334;28;20531;-49
2021/01/18 04:35:38;;;;;;;30.43;14.07;;;2.00;99.90;;;;;;5008767;28;20501;-49
2021/01/18 04:38:06;;;;;;;30.80;16.03;;;2.10;99.90;;;;;;5009887;28;20628;-48
2021/01/18 04:40:35;;;;;;;29.80;15.20;;;2.10;99.90;;;;;;5009857;28;20523;-50
2021/01/18 04:43:03;;;;;;;27.17;14.10;;;2.10;99.90;;;;;;5009259;28;20495;-49
2021/01/18 04:45:31;;;;;;;30.80;15.20;;;2.30;99.90;;;;;;5009689;28;20473;-49
2021/01/18 04:47:59;;;;;;;31.07;14.60;;;2.20;99.90;;;;;;5011216;28;20571;-49
2021/01/18 04:50:29;;;;;;;35.80;16.53;;;2.50;99.90;;;;;;5009818;28;20481;-49
2021/01/18 04:53:00;;;;;;;30.23;14.07;;;2.60;99.90;;;;;;5009287;28;20881;-49
2021/01/18 04:55:33;;;;;;;34.07;15.57;;;2.50;99.90;;;;;;5003279;28;20482;-49
2021/01/18 04:58:09;;;;;;;30.77;13.67;;;2.50;99.90;;;;;;5008507;28;20520;-49
2021/01/18 05:00:42;;;;;;;31.13;14.33;;;2.40;99.90;;;;;;5017264;28;20483;-49
2021/01/18 05:03:13;;;;;;;31.87;14.97;;;2.60;99.90;;;;;;5010321;28;20520;-49
2021/01/18 05:06:18;;;;;;;25.23;13.80;;;2.50;99.90;;;;;;5009185;28;20814;-49
2021/01/18 05:09:18;;;;;;;33.87;14.13;;;2.30;99.90;;;;;;5009132;28;20502;-49
2021/01/18 05:11:48;;;;;;;27.10;12.27;;;2.30;99.90;;;;;;5004733;28;20563;-49
2021/01/18 05:14:16;;;;;;;30.70;13.00;;;2.30;99.90;;;;;;4989632;28;20546;-49
2021/01/18 05:16:49;;;;;;;24.80;10.77;;;2.40;99.90;;;;;;5008813;28;20555;-49
2021/01/18 05:19:19;;;;;;;30.70;12.90;;;2.40;99.90;;;;;;5009304;28;20515;-49
2021/01/18 05:21:48;;;;;;;24.53;11.27;;;2.30;99.90;;;;;;5009957;28;20536;-49
2021/01/18 05:24:18;;;;;;;31.67;12.03;;;2.40;99.90;;;;;;5028437;28;20483;-49
2021/01/18 05:27:06;;;;;;;27.70;12.03;;;2.50;99.90;;;;;;5028853;28;20570;-49
2021/01/18 05:29:35;;;;;;;28.67;13.20;;;2.60;99.90;;;;;;5028679;28;20887;-49
2021/01/18 05:32:19;;;;;;;34.50;13.93;;;2.60;99.90;;;;;;5025322;28;20556;-49
2021/01/18 05:34:52;;;;;;;26.60;12.67;;;2.60;99.90;;;;;;4989170;28;20842;-49
2021/01/18 05:37:20;;;;;;;33.07;12.63;;;2.50;99.90;;;;;;4988726;28;20501;-49
2021/01/18 05:39:47;;;;;;;31.67;12.77;;;2.40;99.90;;;;;;4989222;28;20497;-49
2021/01/18 05:42:21;;;;;;;34.67;12.73;;;2.60;99.90;;;;;;4989134;28;20930;-49
2021/01/18 05:44:48;;;;;;;30.53;12.00;;;2.60;99.90;;;;;;4989252;28;21062;-49
2021/01/18 05:47:16;;;;;;;31.77;11.87;;;2.50;99.90;;;;;;4988907;28;20554;-50
2021/01/18 05:49:47;;;;;;;31.83;12.23;;;2.50;99.90;;;;;;4993459;28;20493;-49
2021/01/18 05:52:29;;;;;;;28.70;10.67;;;2.40;99.90;;;;;;5003407;28;20561;-49
2021/01/18 05:55:18;;;;;;;26.37;11.37;;;2.40;99.90;;;;;;5010250;28;20474;-49
2021/01/18 05:57:52;;;;;;;23.90;10.00;;;2.40;99.90;;;;;;5007390;28;20573;-49
2021/01/18 06:00:29;;;;;;;23.77;8.63;;;2.40;99.90;;;;;;5007607;28;20507;-49
2021/01/18 06:02:58;;;;;;;21.60;10.13;;;2.60;99.90;;;;;;5003838;28;20477;-49
2021/01/18 06:05:32;;;;;;;21.07;9.53;;;2.40;99.90;;;;;;4986269;28;20489;-49
2021/01/18 06:08:15;;;;;;;24.37;10.10;;;2.40;99.90;;;;;;4994729;28;20605;-49
2021/01/18 06:10:46;;;;;;;25.40;9.43;;;2.50;99.90;;;;;;5002317;28;20518;-49
2021/01/18 06:13:22;;;;;;;19.77;8.90;;;2.50;99.90;;;;;;5000204;28;20491;-49
2021/01/18 06:16:10;;;;;;;19.10;8.80;;;2.50;99.90;;;;;;4994684;28;20504;-49
2021/01/18 06:18:39;;;;;;;20.73;9.53;;;2.50;99.90;;;;;;4993783;28;20484;-50
2021/01/18 06:21:09;;;;;;;17.60;9.37;;;2.70;99.90;;;;;;4990422;28;20478;-50
2021/01/18 06:23:37;;;;;;;20.03;8.67;;;2.50;99.90;;;;;;5010048;28;20564;-50
2021/01/18 06:26:05;;;;;;;19.47;9.23;;;2.60;99.90;;;;;;5006095;28;20540;-49
2021/01/18 06:28:34;;;;;;;22.33;9.47;;;2.60;99.90;;;;;;5004748;28;20516;-49
2021/01/18 06:31:03;;;;;;;20.77;9.90;;;2.70;99.90;;;;;;5004889;28;20586;-50
2021/01/18 06:33:41;;;;;;;21.30;9.93;;;2.60;99.90;;;;;;5002900;28;20483;-49
2021/01/18 06:36:17;;;;;;;24.03;10.67;;;2.80;99.90;;;;;;5002921;28;20502;-49
2021/01/18 06:38:52;;;;;;;22.97;10.30;;;2.80;99.90;;;;;;5003234;28;20476;-49
2021/01/18 06:41:24;;;;;;;26.50;9.63;;;2.90;99.90;;;;;;5010604;28;20577;-49
2021/01/18 06:43:52;;;;;;;26.73;11.20;;;3.10;99.90;;;;;;5017898;28;20563;-49
2021/01/18 06:46:22;;;;;;;25.03;11.07;;;3.00;99.90;;;;;;5005528;28;20524;-49
2021/01/18 06:48:51;;;;;;;24.43;9.97;;;2.90;99.90;;;;;;4989713;28;20495;-50
2021/01/18 06:51:21;;;;;;;31.53;11.80;;;2.90;99.90;;;;;;4992004;28;20913;-49
2021/01/18 06:53:51;;;;;;;29.23;11.47;;;3.10;99.90;;;;;;4996044;28;20489;-49
2021/01/18 06:57:00;;;;;;;28.90;11.57;;;3.00;99.90;;;;;;5023418;28;20542;-50
2021/01/18 07:00:04;;;;;;;24.03;11.47;;;3.10;99.90;;;;;;5023734;28;20485;-49
2021/01/18 07:02:38;;;;;;;26.17;11.23;;;3.00;99.90;;;;;;5023432;28;20521;-49
2021/01/18 07:05:11;;;;;;;28.90;11.57;;;2.80;99.90;;;;;;5023725;28;20475;-49
2021/01/18 07:07:40;;;;;;;28.07;11.73;;;2.70;99.90;;;;;;5014577;28;20480;-49
2021/01/18 07:10:10;;;;;;;24.20;11.30;;;2.60;99.90;;;;;;5004602;28;20476;-49
2021/01/18 07:12:38;;;;;;;27.53;11.93;;;2.70;99.90;;;;;;5007006;28;20555;-50
2021/01/18 07:15:08;;;;;;;26.27;13.00;;;2.70;99.90;;;;;;5008092;28;20551;-49
2021/01/18 07:17:55;;;;;;;29.40;12.43;;;2.70;99.90;;;;;;4993395;28;20924;-49
2021/01/18 07:20:26;;;;;;;27.93;12.97;;;2.70;99.90;;;;;;4988217;28;20894;-49
2021/01/18 07:23:30;;;;;;;26.87;13.00;;;2.70;99.90;;;;;;4987865;28;20477;-49
2021/01/18 07:26:32;;;;;;;33.73;13.47;;;2.70;99.90;;;;;;4995640;28;20840;-49
2021/01/18 07:29:05;;;;;;;27.57;13.50;;;2.70;99.90;;;;;;5004814;28;20472;-49
2021/01/18 07:31:35;;;;;;;30.03;12.87;;;2.70;99.90;;;;;;4987847;28;20524;-49
2021/01/18 07:34:04;;;;;;;29.40;12.83;;;2.70;99.90;;;;;;4988097;28;21109;-49
2021/01/18 07:36:33;;;;;;;30.70;13.60;;;2.80;99.90;;;;;;4987974;28;20747;-49
2021/01/18 07:39:00;;;;;;;30.37;13.37;;;2.80;99.90;;;;;;4988328;28;20859;-49
2021/01/18 07:41:36;;;;;;;38.40;15.87;;;2.80;99.90;;;;;;4987830;28;21009;-50
2021/01/18 07:44:30;;;;;;;36.07;15.20;;;2.90;99.90;;;;;;4988144;28;20816;-49
2021/01/18 07:47:01;;;;;;;34.00;13.73;;;2.80;99.90;;;;;;5003460;28;20566;-50
2021/01/18 07:49:35;;;;;;;34.47;13.40;;;2.80;99.90;;;;;;5014625;28;21059;-49
2021/01/18 07:52:27;;;;;;;40.43;15.40;;;2.90;99.90;;;;;;5014950;28;20550;-49
2021/01/18 07:54:58;;;;;;;33.50;13.83;;;2.90;99.90;;;;;;5018381;28;20575;-49
2021/01/18 07:57:41;;;;;;;31.97;15.20;;;2.80;99.90;;;;;;5007518;28;20493;-49
2021/01/18 08:00:31;;;;;;;32.77;13.53;;;2.80;99.90;;;;;;5007782;28;20540;-49
2021/01/18 08:03:24;;;;;;;36.73;12.80;;;2.80;99.90;;;;;;5006847;28;20484;-49
2021/01/18 08:06:05;;;;;;;31.50;13.87;;;2.90;99.90;;;;;;5007228;28;20892;-49
2021/01/18 08:08:33;;;;;;;41.50;14.33;;;2.90;99.90;;;;;;5006970;28;21097;-50
2021/01/18 08:11:04;;;;;;;32.60;13.63;;;2.90;99.90;;;;;;5007056;28;20506;-49
2021/01/18 08:13:56;;;;;;;30.40;13.83;;;2.90;99.90;;;;;;5006638;28;20484;-50
2021/01/18 08:16:29;;;;;;;30.60;12.33;;;2.90;99.90;;;;;;5006817;28;20491;-49
2021/01/18 08:19:07;;;;;;;26.27;13.73;;;2.90;99.90;;;;;;5007123;28;20536;-49
2021/01/18 08:21:58;;;;;;;30.77;13.37;;;2.80;99.90;;;;;;5006733;28;20482;-49
2021/01/18 08:25:03;;;;;;;33.00;12.43;;;2.80;99.90;;;;;;5005979;28;20506;-49
2021/01/18 08:27:55;;;;;;;28.53;12.63;;;2.90;99.90;;;;;;5006629;28;20480;-49
2021/01/18 08:30:39;;;;;;;30.33;12.33;;;2.90;99.90;;;;;;5004637;28;20491;-49
2021/01/18 08:33:09;;;;;;;32.77;12.70;;;2.90;99.90;;;;;;5006657;28;21077;-49
2021/01/18 08:35:48;;;;;;;31.07;13.00;;;2.90;99.90;;;;;;5006790;28;20503;-49
2021/01/18 08:38:28;;;;;;;28.20;12.33;;;2.90;99.90;;;;;;5006585;28;20490;-49
2021/01/18 08:41:08;;;;;;;32.43;12.43;;;3.00;99.90;;;;;;5004429;28;20511;-50
2021/01/18 08:43:50;;;;;;;35.47;13.10;;;3.00;99.90;;;;;;5005589;28;20542;-49
2021/01/18 08:46:37;;;;;;;32.30;12.70;;;3.00;99.90;;;;;;5006384;28;20484;-49
2021/01/18 08:49:26;;;;;;;32.43;12.20;;;3.10;99.90;;;;;;5007509;28;20840;-49
2021/01/18 08:51:53;;;;;;;30.90;12.10;;;3.10;99.90;;;;;;5025865;28;20476;-49
2021/01/18 08:54:36;;;;;;;29.03;12.43;;;3.10;99.90;;;;;;5026149;28;20582;-49
2021/01/18 08:57:21;;;;;;;27.27;12.27;;;3.20;99.90;;;;;;5026212;28;20504;-49
2021/01/18 09:00:05;;;;;;;25.97;13.53;;;3.20;99.90;;;;;;5025698;28;20537;-49
2021/01/18 09:02:41;;;;;;;32.77;13.43;;;3.30;99.90;;;;;;5025588;28;20842;-49
2021/01/18 09:05:17;;;;;;;28.53;12.27;;;3.30;99.90;;;;;;5026477;28;20490;-49
2021/01/18 09:07:46;;;;;;;26.93;13.40;;;3.40;99.90;;;;;;5014917;28;20487;-49
2021/01/18 09:10:15;;;;;;;34.63;14.17;;;3.40;99.90;;;;;;5008247;28;20551;-50
2021/01/18 09:12:44;;;;;;;25.50;12.43;;;3.40;99.90;;;;;;5019310;28;20505;-48
2021/01/18 09:15:13;;;;;;;30.33;13.27;;;3.40;99.90;;;;;;5007362;28;20472;-49
2021/01/18 09:17:42;;;;;;;33.03;13.80;;;3.30;99.90;;;;;;5006121;28;20472;-49
2021/01/18 09:20:12;;;;;;;28.97;13.70;;;3.30;99.90;;;;;;5005741;28;20475;-50
2021/01/18 09:22:42;;;;;;;28.03;14.20;;;3.30;99.90;;;;;;4988431;28;20884;-49
2021/01/18 09:25:11;;;;;;;28.23;15.03;;;3.40;99.90;;;;;;4986645;28;20508;-49
2021/01/18 09:27:40;;;;;;;33.03;15.00;;;3.40;99.90;;;;;;5006540;28;20932;-49
2021/01/18 09:30:11;;;;;;;26.03;15.00;;;3.40;99.90;;;;;;5005733;28;20472;-49
2021/01/18 09:32:39;;;;;;;29.67;15.33;;;3.40;99.90;;;;;;5004830;28;20976;-49
2021/01/18 09:35:12;;;;;;;30.20;16.47;;;3.40;99.90;;;;;;4995165;28;20481;-49
2021/01/18 09:37:48;;;;;;;29.07;15.83;;;3.40;99.90;;;;;;4998514;28;20899;-49
2021/01/18 09:40:35;;;;;;;31.67;16.60;;;3.40;99.90;;;;;;5002619;28;20491;-49
2021/01/18 09:43:03;;;;;;;33.10;16.47;;;3.50;99.90;;;;;;4999015;28;21112;-49
2021/01/18 09:45:31;;;;;;;28.27;16.47;;;3.50;99.90;;;;;;4997805;28;20489;-49
2021/01/18 09:48:03;;;;;;;29.83;17.20;;;3.50;99.90;;;;;;5001255;28;20542;-49
2021/01/18 09:50:33;;;;;;;31.00;17.50;;;3.50;99.90;;;;;;5003007;28;20482;-49
2021/01/18 09:53:06;;;;;;;29.97;18.53;;;3.50;99.90;;;;;;5004354;28;20490;-49
2021/01/18 09:55:36;;;;;;;33.17;18.63;;;3.50;99.90;;;;;;5004493;28;20575;-49
2021/01/18 09:58:09;;;;;;;29.23;18.30;;;3.50;99.90;;;;;;5003959;28;20478;-49
2021/01/18 10:00:38;;;;;;;30.53;18.57;;;3.50;99.90;;;;;;5004980;28;20553;-49
2021/01/18 10:03:06;;;;;;;34.43;19.20;;;3.60;99.90;;;;;;5004850;28;20471;-49
2021/01/18 10:05:39;;;;;;;32.87;20.03;;;3.60;99.90;;;;;;5001495;28;20571;-49
2021/01/18 10:08:13;;;;;;;43.47;22.60;;;3.60;99.90;;;;;;4995440;28;20543;-49
2021/01/18 10:10:46;;;;;;;38.03;23.03;;;3.60;99.90;;;;;;5001524;28;20484;-49
2021/01/18 10:13:17;;;;;;;40.43;22.93;;;3.60;99.90;;;;;;4989732;28;20884;-49
2021/01/18 10:15:46;;;;;;;43.17;24.97;;;3.60;99.90;;;;;;4987444;28;20485;-49
2021/01/18 10:18:34;;;;;;;43.80;25.63;;;3.60;99.90;;;;;;4995021;28;20475;-49
2021/01/18 10:21:03;;;;;;;44.90;24.83;;;3.70;99.90;;;;;;4984933;28;20586;-50
2021/01/18 10:23:32;;;;;;;46.03;24.80;;;3.70;99.90;;;;;;4986971;28;20550;-49
2021/01/18 10:26:21;;;;;;;46.40;25.00;;;3.80;99.90;;;;;;4997244;28;20573;-49
2021/01/18 10:28:54;;;;;;;45.73;25.67;;;3.90;99.90;;;;;;5000724;28;20481;-49
2021/01/18 10:31:24;;;;;;;43.53;24.87;;;3.80;99.90;;;;;;4992414;28;20535;-50
2021/01/18 10:34:28;;;;;;;48.63;26.63;;;3.80;99.90;;;;;;4984797;28;20561;-49
2021/01/18 10:37:09;;;;;;;42.87;25.53;;;3.80;99.90;;;;;;4985265;28;20493;-49
2021/01/18 10:39:38;;;;;;;49.20;25.97;;;3.80;99.90;;;;;;5005134;28;20595;-49
2021/01/18 10:42:09;;;;;;;43.03;25.67;;;3.90;99.90;;;;;;5004582;28;20456;-50
2021/01/18 10:44:41;;;;;;;45.60;25.47;;;3.90;99.90;;;;;;5012383;28;20485;-50
2021/01/18 10:47:08;;;;;;;43.83;26.53;;;3.90;99.90;;;;;;5026398;28;20742;-49
2021/01/18 10:49:38;;;;;;;48.47;25.77;;;4.00;99.90;;;;;;5022692;28;20579;-49
2021/01/18 10:52:11;;;;;;;48.20;25.73;;;4.00;99.90;;;;;;5007333;28;20468;-49
2021/01/18 10:54:39;;;;;;;41.80;25.23;;;4.10;99.90;;;;;;5007577;28;20567;-50
2021/01/18 10:57:20;;;;;;;43.70;26.33;;;4.00;99.90;;;;;;5007777;28;20494;-50
2021/01/18 11:00:09;;;;;;;42.30;24.17;;;4.00;99.90;;;;;;5006581;28;20483;-49
2021/01/18 11:02:41;;;;;;;45.67;24.30;;;4.00;99.90;;;;;;4988060;28;20560;-49
2021/01/18 11:05:16;;;;;;;41.47;23.83;;;4.00;99.90;;;;;;5004452;28;20457;-49
2021/01/18 11:07:47;;;;;;;46.43;24.27;;;4.00;99.90;;;;;;4998766;28;20518;-49
2021/01/18 11:10:23;;;;;;;38.40;22.13;;;4.00;99.90;;;;;;5008003;28;20527;-49
2021/01/18 11:13:07;;;;;;;35.03;21.57;;;4.10;99.90;;;;;;4995122;28;20848;-50
2021/01/18 11:15:38;;;;;;;34.73;22.33;;;4.10;99.90;;;;;;4994810;28;21113;-49
2021/01/18 11:18:08;;;;;;;38.93;23.37;;;4.10;99.90;;;;;;4995326;28;20468;-49
2021/01/18 11:20:36;;;;;;;39.90;21.13;;;4.10;99.90;;;;;;4996008;28;20883;-51
2021/01/18 11:23:09;;;;;;;36.00;21.73;;;4.10;99.90;;;;;;4995229;28;20997;-50
2021/01/18 11:25:38;;;;;;;46.53;21.90;;;4.20;99.90;;;;;;4995477;28;20494;-49
2021/01/18 11:28:13;;;;;;;39.40;21.37;;;4.20;99.90;;;;;;4993601;28;20506;-49
2021/01/18 11:30:42;;;;;;;33.00;20.13;;;4.20;99.90;;;;;;4996062;28;20494;-49
2021/01/18 11:33:10;;;;;;;43.27;21.27;;;4.30;99.90;;;;;;4997290;28;20811;-49
2021/01/18 11:35:39;;;;;;;37.67;20.77;;;4.20;99.90;;;;;;4994304;28;20663;-49
2021/01/18 11:38:07;;;;;;;34.33;20.20;;;4.30;99.90;;;;;;4995718;28;20572;-49
2021/01/18 11:40:35;;;;;;;36.93;20.03;;;4.30;99.90;;;;;;4993567;28;20513;-49
2021/01/18 11:43:02;;;;;;;35.03;18.87;;;4.30;99.90;;;;;;4995304;28;21041;-50
2021/01/18 11:45:29;;;;;;;31.80;19.13;;;4.30;99.90;;;;;;4993604;28;20578;-49
2021/01/18 11:47:57;;;;;;;37.73;20.10;;;4.40;99.90;;;;;;4994047;28;20577;-49
2021/01/18 11:50:24;;;;;;;36.77;21.33;;;4.40;99.90;;;;;;4996813;28;20499;-49
2021/01/18 11:52:54;;;;;;;45.00;20.33;;;4.30;99.90;;;;;;4999022;28;20494;-49
2021/01/18 11:55:22;;;;;;;38.17;19.37;;;4.40;99.90;;;;;;4994904;28;20696;-50
2021/01/18 11:57:51;;;;;;;33.97;18.90;;;4.40;99.90;;;;;;5003797;28;20487;-49
2021/01/18 12:00:22;;;;;;;37.17;19.53;;;4.40;99.90;;;;;;4999645;28;21010;-49
2021/01/18 12:02:54;;;;;;;34.43;19.27;;;4.40;99.90;;;;;;5004606;28;20496;-49
2021/01/18 12:05:25;;;;;;;35.87;17.77;;;4.40;99.90;;;;;;5004708;28;20744;-49
2021/01/18 12:07:52;;;;;;;39.57;18.10;;;4.40;99.90;;;;;;4992089;28;20692;-50
2021/01/18 12:10:20;;;;;;;34.17;19.63;;;4.40;99.90;;;;;;4996611;28;20905;-49
2021/01/18 12:12:49;;;;;;;35.07;19.00;;;4.40;99.90;;;;;;5002982;28;20542;-49
2021/01/18 12:15:17;;;;;;;37.50;18.37;;;4.40;99.90;;;;;;5006467;28;20850;-49
2021/01/18 12:17:46;;;;;;;33.53;17.67;;;4.40;99.90;;;;;;5006538;28;20481;-49
2021/01/18 12:20:16;;;;;;;27.60;18.47;;;4.40;99.90;;;;;;5007083;28;20501;-50
2021/01/18 12:22:44;;;;;;;36.77;19.33;;;4.40;99.90;;;;;;5006496;28;20499;-49
2021/01/18 12:25:12;;;;;;;32.10;19.17;;;4.40;99.90;;;;;;5006991;28;20541;-50
2021/01/18 12:27:40;;;;;;;30.57;18.40;;;4.50;99.90;;;;;;5003534;28;20483;-49
2021/01/18 12:30:10;;;;;;;36.83;18.87;;;4.50;99.90;;;;;;5004306;28;20577;-49
2021/01/18 12:32:37;;;;;;;33.50;19.90;;;4.50;99.90;;;;;;4996175;28;21106;-50
2021/01/18 12:35:06;;;;;;;38.40;18.57;;;4.50;99.90;;;;;;5005522;28;20489;-49
2021/01/18 12:37:33;;;;;;;33.53;18.73;;;4.50;99.90;;;;;;5006795;28;20553;-49
2021/01/18 12:40:01;;;;;;;32.40;18.20;;;4.50;99.90;;;;;;5003503;28;20892;-49
2021/01/18 12:42:28;;;;;;;34.27;18.37;;;4.50;99.90;;;;;;5020843;28;20570;-49
2021/01/18 12:44:55;;;;;;;38.07;19.83;;;4.50;99.90;;;;;;4998323;28;20484;-50
2021/01/18 12:47:23;;;;;;;30.63;18.53;;;4.60;99.90;;;;;;4997106;28;20510;-49
2021/01/18 12:49:51;;;;;;;32.93;18.43;;;4.60;99.90;;;;;;4996059;28;20516;-49
2021/01/18 12:52:18;;;;;;;30.47;18.33;;;4.60;99.90;;;;;;4995270;28;20480;-49
2021/01/18 12:54:47;;;;;;;29.67;17.23;;;4.60;99.90;;;;;;5002840;28;20521;-49
2021/01/18 12:57:15;;;;;;;30.67;18.20;;;4.60;99.90;;;;;;5005517;28;20675;-49
2021/01/18 12:59:43;;;;;;;31.83;17.07;;;4.60;99.90;;;;;;5006123;28;20881;-49
2021/01/18 13:02:11;;;;;;;31.73;17.50;;;4.60;99.90;;;;;;4999451;28;20558;-49
2021/01/18 13:04:40;;;;;;;27.83;17.73;;;4.60;99.90;;;;;;4993234;28;20564;-49
2021/01/18 13:07:08;;;;;;;30.40;18.37;;;4.60;99.90;;;;;;5007242;28;20569;-49
2021/01/18 13:09:35;;;;;;;29.97;17.83;;;4.60;99.90;;;;;;5003560;28;20490;-49